地図

経路データ

SID SEASON NUMBER BASIN SUBBASIN NAME ISO_TIME NATURE LAT LON WMO_WIND WMO_PRES WMO_AGENCY TRACK_TYPE DIST2LAND LANDFALL IFLAG USA_AGENCY USA_ATCF_ID USA_LAT USA_LON USA_RECORD USA_STATUS USA_WIND USA_PRES USA_SSHS USA_R34_NE USA_R34_SE USA_R34_SW USA_R34_NW USA_R50_NE USA_R50_SE USA_R50_SW USA_R50_NW USA_R64_NE USA_R64_SE USA_R64_SW USA_R64_NW USA_POCI USA_ROCI USA_RMW USA_EYE TOKYO_LAT TOKYO_LON TOKYO_GRADE TOKYO_WIND TOKYO_PRES TOKYO_R50_DIR TOKYO_R50_LONG TOKYO_R50_SHORT TOKYO_R30_DIR TOKYO_R30_LONG TOKYO_R30_SHORT TOKYO_LAND CMA_LAT CMA_LON CMA_CAT CMA_WIND CMA_PRES HKO_LAT HKO_LON HKO_CAT HKO_WIND HKO_PRES NEWDELHI_LAT NEWDELHI_LON NEWDELHI_GRADE NEWDELHI_WIND NEWDELHI_PRES NEWDELHI_CI NEWDELHI_DP NEWDELHI_POCI REUNION_LAT REUNION_LON REUNION_TYPE REUNION_WIND REUNION_PRES REUNION_TNUM REUNION_CI REUNION_RMW REUNION_R34_NE REUNION_R34_SE REUNION_R34_SW REUNION_R34_NW REUNION_R50_NE REUNION_R50_SE REUNION_R50_SW REUNION_R50_NW REUNION_R64_NE REUNION_R64_SE REUNION_R64_SW REUNION_R64_NW BOM_LAT BOM_LON BOM_TYPE BOM_WIND BOM_PRES BOM_TNUM BOM_CI BOM_RMW BOM_R34_NE BOM_R34_SE BOM_R34_SW BOM_R34_NW BOM_R50_NE BOM_R50_SE BOM_R50_SW BOM_R50_NW BOM_R64_NE BOM_R64_SE BOM_R64_SW BOM_R64_NW BOM_ROCI BOM_POCI BOM_EYE BOM_POS_METHOD BOM_PRES_METHOD NADI_LAT NADI_LON NADI_CAT NADI_WIND NADI_PRES WELLINGTON_LAT WELLINGTON_LON WELLINGTON_WIND WELLINGTON_PRES DS824_LAT DS824_LON DS824_STAGE DS824_WIND DS824_PRES TD9636_LAT TD9636_LON TD9636_STAGE TD9636_WIND TD9636_PRES TD9635_LAT TD9635_LON TD9635_WIND TD9635_PRES TD9635_ROCI NEUMANN_LAT NEUMANN_LON NEUMANN_CLASS NEUMANN_WIND NEUMANN_PRES MLC_LAT MLC_LON MLC_CLASS MLC_WIND MLC_PRES USA_GUST BOM_GUST BOM_GUST_PER REUNION_GUST REUNION_GUST_PER USA_SEAHGT USA_SEARAD_NE USA_SEARAD_SE USA_SEARAD_SW USA_SEARAD_NW STORM_SPEED STORM_DIR
1973031S10169 1973 19 SP MM NOT_NAMED 1973-01-31 00:00:00 TS -10.0000 169.000 main 587 573 O________OO___ jtwc_sh SH201973 -10.0000 169.000 -1 -10.0000 169.000 TC 35 -10.0000 169.000 2 11 128
1973031S10169 1973 19 SP MM NOT_NAMED 1973-01-31 03:00:00 TS -10.3509 169.457 main 575 563 P________PP___ SH201973 -10.3376 169.450 -1 -10.3376 169.450 TC 35 -10.3774 169.472 2 12 129
1973031S10169 1973 19 SP MM NOT_NAMED 1973-01-31 06:00:00 TS -10.7179 169.912 main 569 557 O________OP___ jtwc_sh SH201973 -10.7000 169.900 -1 -10.7000 169.900 TC 35 -10.7536 169.936 2 12 131
1973031S10169 1973 19 SP MM NOT_NAMED 1973-01-31 09:00:00 TS -11.1093 170.361 main 564 553 P________PP___ SH201973 -11.0999 170.350 -1 -11.0999 170.350 TC 35 -11.1280 170.382 2 12 132
1973031S10169 1973 19 SP MM NOT_NAMED 1973-01-31 12:00:00 TS -11.5000 170.800 main 560 560 O________OO___ jtwc_sh SH201973 -11.5000 170.800 -1 -11.5000 170.800 TC 35 -11.5000 170.800 2 11 131
1973031S10169 1973 19 SP MM NOT_NAMED 1973-01-31 15:00:00 TS -11.8566 171.230 main 563 563 P________PP___ SH201973 -11.8499 171.250 -1 -11.8499 171.250 TC 35 -11.8699 171.190 2 11 130
1973031S10169 1973 19 SP MM NOT_NAMED 1973-01-31 18:00:00 TS -12.2136 171.663 main 587 581 O________OP___ jtwc_sh SH201973 -12.2000 171.700 -1 -12.2000 171.700 TC 35 -12.2408 171.589 2 11 132
1973031S10169 1973 19 SP MM NOT_NAMED 1973-01-31 21:00:00 TS -12.6003 172.090 main 603 603 P________PP___ SH201973 -12.5922 172.113 -1 -12.5922 172.113 TC 35 -12.6164 172.044 2 12 131
1973031S10169 1973 19 SP MM NOT_NAMED 1973-02-01 00:00:00 TS -13.0000 172.600 main 634 634 O________OO___ jtwc_sh SH201973 -13.0000 172.600 -1 -13.0000 172.600 TC 35 -13.0000 172.600 2 14 126
1973031S10169 1973 19 SP MM NOT_NAMED 1973-02-01 03:00:00 TS -13.4042 173.246 main 650 558 P________PP___ SH201973 -13.3997 173.225 -1 -13.3997 173.225 TC 35 -13.4130 173.289 2 16 120
1973031S10169 1973 19 SP MM NOT_NAMED 1973-02-01 06:00:00 TS -13.8099 174.028 main 558 462 O________OP___ jtwc_sh SH201973 -13.8000 174.000 -1 -13.8000 174.000 TC 35 -13.8296 174.085 2 18 117
1973031S10169 1973 19 SP MM NOT_NAMED 1973-02-01 09:00:00 TS -14.2204 174.925 main 462 371 P________PP___ SH201973 -14.2149 174.905 -1 -14.2149 174.905 TC 35 -14.2314 174.964 2 20 114
1973031S10169 1973 19 SP MM NOT_NAMED 1973-02-01 12:00:00 TS -14.6000 175.900 main 364 271 O________OO___ jtwc_sh SH201973 -14.6000 175.900 -1 -14.6000 175.900 TC 35 -14.6000 175.900 2 20 110
1973031S10169 1973 19 SP MM NOT_NAMED 1973-02-01 15:00:00 TS -14.9074 176.877 main 264 183 P________PP___ SH201973 -14.9222 176.893 -1 -14.9222 176.893 TC 35 -14.8779 176.844 2 20 107
1973031S10169 1973 19 SP MM NOT_NAMED 1973-02-01 18:00:00 TS -15.1756 177.879 main 179 124 O________OP___ jtwc_sh SH201973 -15.2000 177.900 -1 -15.2000 177.900 TC 35 -15.1267 177.836 2 20 105
1973031S10169 1973 19 SP MM NOT_NAMED 1973-02-01 21:00:00 TS -15.4186 178.882 main 119 55 P________PP___ SH201973 -15.4345 178.893 -1 -15.4345 178.893 TC 35 -15.3870 178.860 2 20 105
1973031S10169 1973 19 SP MM NOT_NAMED 1973-02-02 00:00:00 TS -15.7000 179.900 main 55 49 O________OO___ jtwc_sh SH201973 -15.7000 179.900 -1 -15.7000 179.900 TC 35 -15.7000 179.900 2 22 107
1973031S10169 1973 19 SP MM NOT_NAMED 1973-02-02 03:00:00 TS -16.0605 181.011 main 118 118 P________PP___ SH201973 -16.0546 -179.057 -1 -16.0546 -179.057 TC 35 -16.0722 -178.853 2 23 111
1973031S10169 1973 19 SP MM NOT_NAMED 1973-02-02 06:00:00 TS -16.5017 182.125 main 236 236 O________OP___ jtwc_sh SH201973 -16.5000 -178.000 -1 -16.5000 182.000 TC 35 -16.5051 -177.624 2 24 113
1973031S10169 1973 19 SP MM NOT_NAMED 1973-02-02 09:00:00 TS -16.9972 183.282 main 362 362 P________PP___ SH201973 -16.9911 -176.786 -1 -16.9911 -176.786 TC 35 -17.0096 -176.582 2 22 120
1973031S10169 1973 19 SP MM NOT_NAMED 1973-02-02 12:00:00 TS -17.6000 184.100 main 455 455 O________OO___ jtwc_sh SH201973 -17.6000 -175.900 -1 -17.6000 184.100 TC 35 -17.6000 -175.900 2 16 147
1973031S10169 1973 19 SP MM NOT_NAMED 1973-02-02 15:00:00 TS -18.3616 184.228 main 489 489 P________PP___ SH201973 -18.3688 -175.717 -1 -18.3688 -175.717 TC 35 -18.3471 -175.883 2 16 186
1973031S10169 1973 19 SP MM NOT_NAMED 1973-02-02 18:00:00 TS -19.1901 183.927 main 501 501 O________OP___ jtwc_sh SH201973 -19.2000 -176.000 -1 -19.2000 184.000 TC 35 -19.1704 -176.220 2 18 205
1973031S10169 1973 19 SP MM NOT_NAMED 1973-02-02 21:00:00 TS -20.0016 183.423 main 514 514 P________PP___ SH201973 -20.0107 -176.528 -1 -20.0107 -176.528 TC 35 -19.9833 -176.674 2 18 210
1973031S10169 1973 19 SP MM NOT_NAMED 1973-02-03 00:00:00 TS -20.7000 183.000 main 536 536 O________OO___ jtwc_sh SH201973 -20.7000 -177.000 -1 -20.7000 183.000 TC 35 -20.7000 -177.000 2 12 200
1973031S10169 1973 19 SP MM NOT_NAMED 1973-02-03 03:00:00 TS -21.1657 182.979 main 568 568 P________PP___ SH201973 -21.1520 -177.001 -1 -21.1520 -177.001 TC 35 -21.1931 -177.063 2 9 166
1973031S10169 1973 19 SP MM NOT_NAMED 1973-02-03 06:00:00 TS -21.5286 183.224 main 605 605 O________OP___ jtwc_sh SH201973 -21.5000 -176.700 -1 -21.5000 183.300 TC 35 -21.5858 -176.928 2 9 145
1973031S10169 1973 19 SP MM NOT_NAMED 1973-02-03 09:00:00 TS -21.9050 183.540 main 657 657 P________PP___ SH201973 -21.8895 -176.438 -1 -21.8895 -176.438 TC 35 -21.9362 -176.504 2 13 128
1973031S10169 1973 19 SP MM NOT_NAMED 1973-02-03 12:00:00 TS -22.3000 184.300 main 749 749 O________OO___ jtwc_sh SH201973 -22.3000 -175.700 -1 -22.3000 184.300 TC 35 -22.3000 -175.700 2 23 111
1973031S10169 1973 19 SP MM NOT_NAMED 1973-02-03 15:00:00 TS -22.7382 185.847 main 900 900 P________PP___ SH201973 -22.7459 -174.116 -1 -22.7459 -174.116 TC 35 -22.7226 -174.229 2 33 106
1973031S10169 1973 19 SP MM NOT_NAMED 1973-02-03 18:00:00 TS -23.1847 187.730 main 1051 1051 O________OP___ jtwc_sh SH201973 -23.2000 -172.200 -1 -23.2000 187.800 TC 35 -23.1540 -172.411 2 35 105
1973031S10169 1973 19 SP MM NOT_NAMED 1973-02-03 21:00:00 TS -23.6159 189.538 main 1110 1110 P________PP___ SH201973 -23.6214 -170.413 -1 -23.6214 -170.413 TC 35 -23.6049 -170.561 2 31 107
1973031S10169 1973 19 SP MM NOT_NAMED 1973-02-04 00:00:00 TS -24.1000 191.000 main 1200 1200 O________OO___ jtwc_sh SH201973 -24.1000 -169.000 -1 -24.1000 191.000 TC 35 -24.1000 -169.000 2 23 119
1973031S10169 1973 19 SP MM NOT_NAMED 1973-02-04 03:00:00 TS -24.7116 191.728 main 1285 1285 P________PP___ SH201973 -24.7169 -168.333 -1 -24.7169 -168.333 TC 35 -24.7011 -168.150 2 16 142
1973031S10169 1973 19 SP MM NOT_NAMED 1973-02-04 06:00:00 TS -25.3879 192.124 main 1373 1373 O________OP___ jtwc_sh SH201973 -25.4000 -168.000 -1 -25.4000 192.000 TC 35 -25.3637 -167.627 2 16 150
1973031S10169 1973 19 SP MM NOT_NAMED 1973-02-04 09:00:00 TS -26.0583 192.575 main 1463 1463 P________PP___ SH201973 -26.0649 -167.492 -1 -26.0649 -167.492 TC 35 -26.0452 -167.291 2 15 149
1973031S10169 1973 19 SP MM NOT_NAMED 1973-02-04 12:00:00 TS -26.7000 193.000 main 1540 1540 O________OO___ jtwc_sh SH201973 -26.7000 -167.000 -1 -26.7000 193.000 TC 35 -26.7000 -167.000 2 14 148
1973031S10169 1973 19 SP MM NOT_NAMED 1973-02-04 15:00:00 TS -27.2788 193.426 main 1617 1617 P________PP___ SH201973 -27.2723 -166.542 -1 -27.2723 -166.542 TC 35 -27.2917 -166.639 2 14 145
1973031S10169 1973 19 SP MM NOT_NAMED 1973-02-04 18:00:00 TS -27.8090 193.865 main 1688 1688 O________OP___ jtwc_sh SH201973 -27.8000 -166.100 -1 -27.8000 193.900 TC 35 -27.8271 -166.204 2 13 142
1973031S10169 1973 19 SP MM NOT_NAMED 1973-02-04 21:00:00 TS -28.3115 194.326 main 1754 1754 P________PP___ SH201973 -28.3053 -165.653 -1 -28.3053 -165.653 TC 35 -28.3238 -165.716 2 13 140
1973031S10169 1973 19 SP MM NOT_NAMED 1973-02-05 00:00:00 TS -28.8000 194.800 main 1797 O________OO___ jtwc_sh SH201973 -28.8000 -165.200 -1 -28.8000 194.800 TC 35 -28.8000 -165.200 2 13 140

デジタル台風データ・検索

IBTrACS Databaseについて

本データベースは、米国NOAAが公開する1842年以降の世界の熱帯低気圧のベストトラックデータアーカイブInternational Best Track Archive for Climate Stewardship (IBTrACS)を、ウェブで閲覧しやすい形式に変換したものです。

最終更新日:2021-10-08